Time;durP1;ratioP1;P1;durP2;ratioP2;P2;SDS_P1;SDS_P2;PMS_P1;PMS_P2;Temp;Humidity;BMP_temperature;BMP_pressure;BME280_temperature;BME280_humidity;BME280_pressure;Samples;Min_cycle;Max_cycle;Signal;HPM_P1;HPM_P2
2023/02/15 00:01:27;;;;;;;28.30;18.13;;;4.90;1.30;;;;;;5082323;28;20555;-64
2023/02/15 00:03:54;;;;;;;29.48;18.73;;;4.90;13.10;;;;;;5084160;28;20463;-64
2023/02/15 00:06:22;;;;;;;31.00;19.50;;;4.90;14.90;;;;;;5081974;28;20423;-63
2023/02/15 00:08:49;;;;;;;28.17;19.10;;;4.90;14.40;;;;;;5081139;28;20415;-64
2023/02/15 00:11:39;;;;;;;28.63;18.52;;;4.90;15.30;;;;;;5087277;28;20409;-64
2023/02/15 00:14:05;;;;;;;27.52;18.45;;;4.90;13.60;;;;;;5080125;28;20406;-63
2023/02/15 00:16:32;;;;;;;29.45;19.10;;;5.00;7.30;;;;;;5077292;28;20800;-64
2023/02/15 00:19:01;;;;;;;31.35;19.05;;;5.00;5.80;;;;;;5083117;28;20423;-64
2023/02/15 00:21:30;;;;;;;30.02;18.77;;;5.10;2.20;;;;;;5083572;28;20422;-64
2023/02/15 00:23:57;;;;;;;29.27;19.63;;;5.10;1.00;;;;;;5072271;28;20415;-64
2023/02/15 00:26:23;;;;;;;31.95;19.83;;;5.10;1.00;;;;;;5071800;28;20432;-64
2023/02/15 00:28:50;;;;;;;28.50;18.42;;;5.20;1.00;;;;;;5071927;28;20958;-63
2023/02/15 00:31:17;;;;;;;29.02;18.75;;;5.20;1.00;;;;;;5071988;28;20411;-63
2023/02/15 00:33:44;;;;;;;29.23;19.23;;;5.20;1.00;;;;;;5071775;28;20412;-64
2023/02/15 00:36:11;;;;;;;29.63;19.90;;;5.30;1.00;;;;;;5079307;28;20409;-64
2023/02/15 00:38:40;;;;;;;30.65;19.02;;;5.30;1.00;;;;;;5083574;28;20411;-64
2023/02/15 00:41:08;;;;;;;28.60;19.30;;;5.30;1.00;;;;;;5087207;28;20459;-65
2023/02/15 00:43:35;;;;;;;30.95;19.95;;;5.20;1.00;;;;;;5083744;28;20488;-63
2023/02/15 00:46:03;;;;;;;29.27;19.50;;;5.20;1.00;;;;;;5083950;28;20485;-63
2023/02/15 00:48:30;;;;;;;29.88;20.38;;;5.30;1.00;;;;;;5081990;28;20815;-63
2023/02/15 00:50:59;;;;;;;30.52;19.75;;;5.40;1.00;;;;;;5083790;28;20460;-64
2023/02/15 00:53:27;;;;;;;29.80;19.70;;;5.50;1.00;;;;;;5079549;28;20410;-63
2023/02/15 00:55:55;;;;;;;30.52;19.73;;;5.50;1.00;;;;;;5082908;28;20401;-65
2023/02/15 00:58:22;;;;;;;31.88;20.33;;;5.50;1.00;;;;;;5076451;28;20994;-64
2023/02/15 01:00:50;;;;;;;29.65;20.35;;;5.50;1.00;;;;;;5082052;28;20455;-64
2023/02/15 01:03:18;;;;;;;31.13;19.90;;;5.60;1.00;;;;;;5080378;28;20567;-64
2023/02/15 01:05:45;;;;;;;30.90;20.48;;;5.60;1.00;;;;;;5081486;28;20422;-64
2023/02/15 01:08:12;;;;;;;31.73;20.38;;;5.70;1.00;;;;;;5082812;28;20431;-64
2023/02/15 01:10:39;;;;;;;28.98;19.88;;;5.60;1.00;;;;;;5084347;28;20459;-64
2023/02/15 01:13:07;;;;;;;30.13;20.15;;;5.50;1.00;;;;;;5086605;28;20417;-64
2023/02/15 01:15:35;;;;;;;30.80;20.50;;;5.40;1.00;;;;;;5079899;28;20465;-64
2023/02/15 01:18:02;;;;;;;29.55;20.13;;;5.40;1.00;;;;;;5080968;28;20833;-64
2023/02/15 01:20:30;;;;;;;32.28;20.23;;;5.40;1.00;;;;;;5082814;28;20463;-64
2023/02/15 01:22:58;;;;;;;31.50;20.67;;;5.40;1.00;;;;;;5082697;28;20406;-64
2023/02/15 01:25:25;;;;;;;32.15;21.52;;;5.10;1.00;;;;;;5082324;28;20422;-63
2023/02/15 01:27:52;;;;;;;32.10;20.92;;;5.00;1.00;;;;;;5080373;28;20437;-61
2023/02/15 01:30:20;;;;;;;32.35;21.13;;;4.90;1.00;;;;;;5080041;28;20411;-62
2023/02/15 01:32:47;;;;;;;31.83;21.50;;;4.60;1.00;;;;;;5082219;28;21009;-63
2023/02/15 01:35:13;;;;;;;34.63;21.65;;;4.70;3.40;;;;;;5081391;28;20411;-63
2023/02/15 01:37:40;;;;;;;34.92;22.38;;;4.60;10.00;;;;;;5079674;28;20408;-62
2023/02/15 01:40:12;;;;;;;34.55;21.83;;;4.60;14.30;;;;;;5082438;28;20409;-63
2023/02/15 01:42:39;;;;;;;32.77;21.80;;;4.50;18.70;;;;;;5088862;28;20487;-63
2023/02/15 01:45:19;;;;;;;35.95;23.23;;;4.50;23.80;;;;;;5081614;28;20826;-63
2023/02/15 01:47:50;;;;;;;35.70;23.27;;;4.50;27.00;;;;;;5079783;28;20407;-63
2023/02/15 01:50:21;;;;;;;35.72;22.80;;;4.50;32.00;;;;;;5079559;28;20471;-63
2023/02/15 01:52:54;;;;;;;35.25;22.77;;;4.40;35.00;;;;;;5080301;28;20400;-63
2023/02/15 01:55:22;;;;;;;34.63;22.43;;;4.40;42.00;;;;;;5079592;28;20505;-63
2023/02/15 01:57:50;;;;;;;34.00;22.17;;;4.40;41.30;;;;;;5081046;28;20482;-63
2023/02/15 02:00:18;;;;;;;34.83;22.50;;;4.40;43.00;;;;;;5082161;28;20405;-63
2023/02/15 02:02:48;;;;;;;34.35;23.15;;;4.30;42.10;;;;;;5079850;28;20993;-63
2023/02/15 02:05:15;;;;;;;33.25;22.50;;;4.40;50.50;;;;;;5079405;28;20476;-63
2023/02/15 02:07:45;;;;;;;33.73;22.77;;;4.30;50.80;;;;;;5079260;28;20890;-62
2023/02/15 02:10:17;;;;;;;35.45;23.70;;;4.30;53.50;;;;;;5081429;28;20416;-62
2023/02/15 02:12:46;;;;;;;36.55;23.52;;;4.30;60.50;;;;;;5087804;28;20405;-62
2023/02/15 02:15:14;;;;;;;36.00;23.23;;;4.30;58.10;;;;;;5080649;28;20425;-62
2023/02/15 02:17:54;;;;;;;35.22;22.60;;;4.40;57.30;;;;;;5080061;28;20446;-63
2023/02/15 02:20:39;;;;;;;34.88;23.08;;;4.40;53.10;;;;;;5081739;28;20506;-63
2023/02/15 02:23:17;;;;;;;35.80;23.70;;;4.30;59.30;;;;;;5083693;28;20411;-63
2023/02/15 02:26:09;;;;;;;36.35;23.65;;;4.30;57.80;;;;;;5083253;28;20545;-63
2023/02/15 02:29:09;;;;;;;34.45;23.00;;;4.30;55.70;;;;;;5074707;28;20407;-63
2023/02/15 02:31:49;;;;;;;36.05;24.17;;;4.30;64.90;;;;;;5052144;28;20412;-63
2023/02/15 02:34:22;;;;;;;34.65;23.20;;;4.40;60.70;;;;;;5078366;28;20419;-63
2023/02/15 02:36:53;;;;;;;37.08;24.02;;;4.30;55.20;;;;;;5074040;28;20457;-63
2023/02/15 02:39:28;;;;;;;34.47;22.38;;;4.30;55.30;;;;;;5074272;28;20948;-62
2023/02/15 02:42:01;;;;;;;35.73;23.43;;;4.40;57.30;;;;;;5087619;28;20421;-63
2023/02/15 02:44:34;;;;;;;36.28;23.35;;;4.40;50.30;;;;;;5084123;28;20468;-63
2023/02/15 02:47:06;;;;;;;34.88;23.45;;;4.30;52.70;;;;;;5082795;28;20465;-63
2023/02/15 02:49:36;;;;;;;34.90;23.30;;;4.30;58.10;;;;;;5084147;28;20469;-63
2023/02/15 02:52:05;;;;;;;36.33;23.13;;;4.30;57.30;;;;;;5085590;28;20464;-62
2023/02/15 02:54:33;;;;;;;35.67;23.25;;;4.30;61.00;;;;;;5084531;28;20486;-62
2023/02/15 02:57:04;;;;;;;36.58;23.85;;;4.30;56.80;;;;;;5085749;28;20479;-63
2023/02/15 02:59:35;;;;;;;37.50;23.95;;;4.30;52.20;;;;;;5084397;28;21311;-63
2023/02/15 03:02:12;;;;;;;38.10;24.03;;;4.40;50.70;;;;;;5082526;28;20914;-63
2023/02/15 03:04:42;;;;;;;37.92;24.70;;;4.40;46.30;;;;;;5082830;28;20880;-63
2023/02/15 03:07:12;;;;;;;35.10;23.52;;;4.50;39.10;;;;;;5084216;28;20791;-63
2023/02/15 03:09:42;;;;;;;35.70;24.73;;;4.60;32.10;;;;;;5084989;28;20455;-63
2023/02/15 03:12:11;;;;;;;38.13;24.00;;;4.50;26.70;;;;;;5085566;28;20410;-63
2023/02/15 03:14:40;;;;;;;40.45;25.00;;;4.50;23.60;;;;;;5085494;28;20449;-63
2023/02/15 03:17:08;;;;;;;37.75;24.23;;;4.40;23.20;;;;;;5084105;28;20406;-64
2023/02/15 03:19:37;;;;;;;38.78;24.48;;;4.30;26.40;;;;;;5084820;28;20413;-63
2023/02/15 03:22:09;;;;;;;36.53;24.15;;;4.30;34.50;;;;;;5083148;28;20418;-63
2023/02/15 03:24:40;;;;;;;39.22;25.25;;;4.20;43.20;;;;;;5082076;28;20837;-63
2023/02/15 03:27:11;;;;;;;41.33;24.50;;;4.10;50.70;;;;;;5083227;28;20920;-63
2023/02/15 03:29:38;;;;;;;37.08;24.20;;;4.10;56.00;;;;;;5085017;28;20799;-63
2023/02/15 03:32:09;;;;;;;39.50;24.77;;;4.10;55.80;;;;;;5081678;28;20911;-63
2023/02/15 03:34:35;;;;;;;38.42;24.38;;;4.10;56.10;;;;;;5082147;28;20407;-63
2023/02/15 03:37:12;;;;;;;37.30;23.83;;;4.10;58.70;;;;;;5083498;28;20406;-63
2023/02/15 03:39:45;;;;;;;41.65;25.55;;;4.20;57.00;;;;;;5084928;28;20432;-63
2023/02/15 03:42:17;;;;;;;34.42;23.55;;;4.10;53.50;;;;;;5087905;28;20406;-63
2023/02/15 03:44:55;;;;;;;34.83;23.60;;;4.20;53.60;;;;;;5085318;28;20847;-63
2023/02/15 03:47:26;;;;;;;37.08;24.45;;;4.30;48.90;;;;;;5084280;28;20426;-63
2023/02/15 03:49:56;;;;;;;38.30;24.23;;;4.30;44.30;;;;;;5083776;28;20490;-63
2023/02/15 03:52:26;;;;;;;37.55;23.98;;;4.30;40.90;;;;;;5082098;28;20472;-63
2023/02/15 03:54:54;;;;;;;38.15;24.42;;;4.20;40.70;;;;;;5082134;28;20413;-63
2023/02/15 04:03:21;;;;;;;38.95;24.80;;;4.20;36.70;;;;;;5083205;28;20405;-63
2023/02/15 04:05:48;;;;;;;37.33;24.63;;;4.00;39.40;;;;;;5072528;28;20419;-63
2023/02/15 04:08:16;;;;;;;37.63;24.17;;;4.10;41.30;;;;;;5072500;28;20890;-62
2023/02/15 04:10:55;;;;;;;40.05;25.67;;;4.00;41.40;;;;;;5079020;28;20414;-63
2023/02/15 04:13:23;;;;;;;40.47;25.52;;;3.90;42.40;;;;;;5087621;28;20418;-62
2023/02/15 04:16:04;;;;;;;37.63;24.83;;;3.90;45.50;;;;;;5081092;28;20474;-62
2023/02/15 04:26:48;;;;;;;38.78;25.38;;;3.80;53.10;;;;;;5083587;28;20421;-63
2023/02/15 04:29:15;;;;;;;38.03;24.67;;;3.90;53.20;;;;;;5083029;28;20418;-62
2023/02/15 04:31:42;;;;;;;39.83;25.05;;;3.90;52.80;;;;;;5081434;28;20482;-63
2023/02/15 04:34:09;;;;;;;39.75;25.50;;;3.90;51.60;;;;;;5082826;28;20842;-62
2023/02/15 04:36:36;;;;;;;37.30;24.80;;;3.90;50.10;;;;;;5083445;28;20406;-62
2023/02/15 04:39:04;;;;;;;38.60;24.67;;;3.90;50.50;;;;;;5072102;28;20422;-63
2023/02/15 04:41:31;;;;;;;39.10;24.95;;;3.90;50.10;;;;;;5082681;28;20419;-63
2023/02/15 04:43:57;;;;;;;37.00;24.45;;;3.90;50.40;;;;;;5084076;28;20410;-63
2023/02/15 04:46:24;;;;;;;38.45;24.80;;;3.90;50.90;;;;;;5081669;28;20473;-63
2023/02/15 04:48:50;;;;;;;38.72;24.67;;;3.90;51.60;;;;;;5080884;28;20756;-63
2023/02/15 04:51:17;;;;;;;40.63;24.33;;;3.90;52.50;;;;;;5080711;28;20473;-63
2023/02/15 04:53:44;;;;;;;39.70;25.00;;;3.80;53.40;;;;;;5084415;28;20954;-63
2023/02/15 04:56:12;;;;;;;37.30;24.92;;;3.80;53.50;;;;;;5080455;28;20947;-62
2023/02/15 04:58:40;;;;;;;40.53;26.17;;;3.80;51.20;;;;;;5081824;28;20414;-63
2023/02/15 05:01:08;;;;;;;42.47;26.90;;;3.80;48.80;;;;;;5083041;28;20503;-62
2023/02/15 05:03:34;;;;;;;44.40;26.85;;;3.70;51.20;;;;;;5081307;28;20408;-63
2023/02/15 05:06:01;;;;;;;41.47;26.10;;;3.70;53.50;;;;;;5080583;28;20473;-63
2023/02/15 05:08:28;;;;;;;39.03;24.40;;;3.70;55.70;;;;;;5082985;28;20516;-63
2023/02/15 05:10:55;;;;;;;41.38;26.67;;;3.70;57.10;;;;;;5085344;28;20815;-63
2023/02/15 05:13:23;;;;;;;42.60;27.03;;;3.70;57.40;;;;;;5081623;28;20549;-63
2023/02/15 05:15:51;;;;;;;42.58;26.02;;;3.70;60.00;;;;;;5082131;28;20467;-62
2023/02/15 05:18:19;;;;;;;46.05;27.23;;;3.70;64.40;;;;;;5078943;28;20415;-63
2023/02/15 05:20:46;;;;;;;45.10;27.20;;;3.60;68.60;;;;;;5081372;28;20415;-63
2023/02/15 05:23:13;;;;;;;42.00;26.83;;;3.60;68.70;;;;;;5083177;28;20434;-63
2023/02/15 05:28:27;;;;;;;42.05;26.10;;;3.50;73.30;;;;;;5079909;28;20482;-62
2023/02/15 05:31:03;;;;;;;43.53;26.80;;;3.40;73.80;;;;;;5081018;28;20412;-63
2023/02/15 05:33:30;;;;;;;43.53;27.45;;;3.40;77.00;;;;;;5080546;28;20418;-63
2023/02/15 05:35:57;;;;;;;40.47;26.95;;;3.40;79.70;;;;;;5079490;28;20420;-63
2023/02/15 05:38:23;;;;;;;44.78;28.42;;;3.40;84.80;;;;;;5071014;28;20411;-63
2023/02/15 05:40:51;;;;;;;41.65;26.92;;;3.40;89.40;;;;;;5077970;28;20413;-63
2023/02/15 05:43:18;;;;;;;44.25;27.77;;;3.40;90.30;;;;;;5082692;28;20815;-62
2023/02/15 05:45:47;;;;;;;44.30;27.67;;;3.30;90.10;;;;;;5080511;28;20445;-62
2023/02/15 05:48:14;;;;;;;51.25;29.17;;;3.30;91.10;;;;;;5079689;28;20411;-62
2023/02/15 05:50:40;;;;;;;45.83;28.52;;;3.20;94.40;;;;;;5081754;28;20902;-63
2023/02/15 05:53:07;;;;;;;46.70;27.83;;;3.20;97.20;;;;;;5081639;28;20410;-63
2023/02/15 05:55:34;;;;;;;46.23;28.63;;;3.20;99.90;;;;;;5083023;28;20474;-62
2023/02/15 05:58:00;;;;;;;45.25;28.60;;;3.20;99.90;;;;;;5089265;28;20414;-62
2023/02/15 06:00:27;;;;;;;46.80;29.20;;;3.10;99.90;;;;;;5086156;28;20465;-62
2023/02/15 06:02:55;;;;;;;47.42;29.15;;;3.10;99.90;;;;;;5082949;28;20415;-61
2023/02/15 06:05:22;;;;;;;48.10;30.30;;;3.00;99.90;;;;;;5083413;28;20415;-62
2023/02/15 06:07:48;;;;;;;47.28;29.42;;;2.90;99.90;;;;;;5082211;28;20424;-62
2023/02/15 06:10:15;;;;;;;47.45;30.02;;;2.90;99.90;;;;;;5082344;28;20945;-62
2023/02/15 06:12:42;;;;;;;49.53;29.48;;;2.90;99.90;;;;;;5085034;28;20451;-62
2023/02/15 06:15:09;;;;;;;48.22;28.13;;;3.00;99.90;;;;;;5081508;28;20439;-62
2023/02/15 06:17:36;;;;;;;44.83;27.48;;;3.00;99.90;;;;;;5080545;28;20402;-62
2023/02/15 06:20:05;;;;;;;46.83;28.23;;;3.20;99.90;;;;;;5078907;28;20408;-62
2023/02/15 06:22:32;;;;;;;42.70;26.55;;;3.30;99.90;;;;;;5080103;28;20472;-62
2023/02/15 06:24:59;;;;;;;44.80;27.58;;;3.40;99.90;;;;;;5085479;28;20471;-62
2023/02/15 06:27:25;;;;;;;43.42;26.83;;;3.40;99.90;;;;;;5085110;28;20486;-59
2023/02/15 06:29:52;;;;;;;45.80;27.58;;;3.30;99.90;;;;;;5084555;28;20421;-64
2023/02/15 06:32:18;;;;;;;44.65;28.27;;;3.20;99.90;;;;;;5082245;28;20463;-64
2023/02/15 06:34:45;;;;;;;45.60;28.20;;;3.10;99.90;;;;;;5083706;28;20805;-65
2023/02/15 06:37:13;;;;;;;44.78;27.10;;;3.10;99.90;;;;;;5078914;28;20752;-64
2023/02/15 06:39:40;;;;;;;44.80;27.17;;;3.10;99.90;;;;;;5080456;28;20483;-64
2023/02/15 06:42:06;;;;;;;42.63;26.63;;;3.20;99.90;;;;;;5087450;28;20414;-64
2023/02/15 06:44:33;;;;;;;42.78;25.67;;;3.30;99.90;;;;;;5080709;28;20426;-62
2023/02/15 06:47:00;;;;;;;40.55;25.55;;;3.30;99.90;;;;;;5079410;28;20431;-63
2023/02/15 06:49:26;;;;;;;40.92;25.63;;;3.40;99.90;;;;;;5080805;28;20417;-62
2023/02/15 06:51:53;;;;;;;44.20;26.63;;;3.40;99.90;;;;;;5080004;28;20510;-64
2023/02/15 06:54:21;;;;;;;42.03;26.05;;;3.40;99.90;;;;;;5079039;28;20468;-62
2023/02/15 06:56:48;;;;;;;40.80;26.17;;;3.40;99.90;;;;;;5069541;28;20415;-63
2023/02/15 06:59:14;;;;;;;41.67;25.98;;;3.40;99.90;;;;;;5069938;28;20411;-65
2023/02/15 07:01:41;;;;;;;40.83;25.45;;;3.40;99.90;;;;;;5069677;28;20465;-64
2023/02/15 07:04:24;;;;;;;40.95;25.80;;;3.40;99.90;;;;;;5071798;28;20413;-68
2023/02/15 07:06:50;;;;;;;39.53;24.13;;;3.50;99.90;;;;;;5088361;28;20425;-65
2023/02/15 07:09:17;;;;;;;38.85;23.85;;;3.80;99.90;;;;;;5083466;28;20407;-68
2023/02/15 07:14:30;;;;;;;36.28;23.27;;;4.10;95.00;;;;;;5083102;28;20438;-63
2023/02/15 07:16:56;;;;;;;36.50;23.50;;;4.10;73.70;;;;;;5085495;28;20406;-63
2023/02/15 07:19:23;;;;;;;38.17;23.67;;;4.00;67.30;;;;;;5078584;28;20407;-64
2023/02/15 07:21:50;;;;;;;36.92;23.50;;;4.00;67.40;;;;;;5083414;28;20412;-64
2023/02/15 07:24:16;;;;;;;36.95;24.00;;;4.00;65.50;;;;;;5084223;28;20424;-63
2023/02/15 07:26:44;;;;;;;37.47;23.25;;;4.00;65.50;;;;;;5073368;28;20426;-64
2023/02/15 07:29:11;;;;;;;36.95;22.45;;;4.00;69.00;;;;;;5072927;28;20921;-63
2023/02/15 07:31:38;;;;;;;35.15;21.92;;;4.10;67.60;;;;;;5074161;28;20477;-64
2023/02/15 07:34:06;;;;;;;34.75;22.73;;;4.10;66.00;;;;;;5073900;28;20424;-65
2023/02/15 07:36:33;;;;;;;39.65;23.55;;;4.10;64.90;;;;;;5073060;28;20477;-64
2023/02/15 07:39:00;;;;;;;38.35;22.05;;;4.10;64.00;;;;;;5076227;28;20782;-65
2023/02/15 07:41:26;;;;;;;36.95;22.50;;;4.20;63.10;;;;;;5088396;28;20892;-64
2023/02/15 07:43:54;;;;;;;38.72;22.70;;;4.30;55.80;;;;;;5085010;28;20467;-65
2023/02/15 07:46:22;;;;;;;35.67;22.15;;;4.40;53.00;;;;;;5081717;28;20907;-66
2023/02/15 07:48:48;;;;;;;34.45;21.90;;;4.50;46.10;;;;;;5091196;28;20491;-65
2023/02/15 07:51:15;;;;;;;35.40;22.25;;;4.50;37.00;;;;;;5085346;28;20819;-66
2023/02/15 07:53:42;;;;;;;35.28;21.67;;;4.60;30.10;;;;;;5083683;28;20422;-66
2023/02/15 07:56:12;;;;;;;32.28;21.05;;;4.70;23.90;;;;;;5088185;28;20414;-66
2023/02/15 07:58:51;;;;;;;35.22;21.60;;;4.90;19.40;;;;;;5083803;28;20444;-66
2023/02/15 08:01:21;;;;;;;32.80;21.00;;;5.00;3.40;;;;;;5082514;28;20805;-66
2023/02/15 08:03:48;;;;;;;32.35;20.30;;;5.00;1.00;;;;;;5088693;28;20834;-66
2023/02/15 08:06:15;;;;;;;31.08;20.00;;;4.90;1.00;;;;;;5083584;28;20418;-66
2023/02/15 08:08:43;;;;;;;30.70;19.70;;;5.00;1.00;;;;;;5083566;28;20455;-66
2023/02/15 08:11:26;;;;;;;31.75;20.85;;;5.10;1.00;;;;;;5083888;28;20417;-67
2023/02/15 08:13:55;;;;;;;32.10;20.58;;;5.20;1.00;;;;;;5083226;28;20406;-66
2023/02/15 08:16:25;;;;;;;29.73;19.33;;;5.30;1.00;;;;;;5080022;28;20408;-67
2023/02/15 08:18:52;;;;;;;31.27;19.70;;;5.40;1.00;;;;;;5071132;28;20409;-65
2023/02/15 08:21:19;;;;;;;30.20;19.25;;;5.50;1.00;;;;;;5072272;28;20942;-64
2023/02/15 08:23:46;;;;;;;29.80;19.10;;;5.70;1.00;;;;;;5071837;28;20469;-63
2023/02/15 08:26:13;;;;;;;29.30;18.45;;;5.80;1.00;;;;;;5077307;28;20821;-64
2023/02/15 08:28:40;;;;;;;28.52;18.42;;;5.90;1.00;;;;;;5089485;28;20477;-63
2023/02/15 08:31:07;;;;;;;29.85;19.05;;;5.90;1.00;;;;;;5082956;28;20417;-66
2023/02/15 08:33:36;;;;;;;28.67;18.57;;;5.90;1.00;;;;;;5078910;28;20468;-64
2023/02/15 08:46:10;;;;;;;26.17;17.65;;;6.50;1.00;;;;;;5091090;28;20905;-61
2023/02/15 08:48:39;;;;;;;28.70;19.40;;;6.60;1.00;;;;;;5093667;28;20448;-67
2023/02/15 08:51:07;;;;;;;28.48;17.63;;;6.70;99.90;;;;;;5090630;28;20413;-67
2023/02/15 08:53:34;;;;;;;27.20;17.13;;;6.90;99.90;;;;;;5085331;28;20415;-65
2023/02/15 08:56:01;;;;;;;26.98;17.75;;;6.90;99.90;;;;;;5081269;28;20888;-64
2023/02/15 08:58:29;;;;;;;27.50;18.23;;;7.00;99.90;;;;;;5082558;28;20406;-64
2023/02/15 09:00:55;;;;;;;27.58;18.00;;;7.10;99.90;;;;;;5084488;28;20417;-65
2023/02/15 09:03:22;;;;;;;32.70;18.83;;;7.30;1.00;;;;;;5081094;28;20424;-66
2023/02/15 09:05:50;;;;;;;38.08;19.80;;;7.60;99.90;;;;;;5082497;28;20413;-65
2023/02/15 09:08:17;;;;;;;27.95;17.65;;;8.00;99.90;;;;;;5081151;28;20839;-67
2023/02/15 09:10:43;;;;;;;26.35;16.92;;;8.10;99.90;;;;;;5084382;28;20437;-67
2023/02/15 09:13:10;;;;;;;29.98;21.00;;;8.50;99.90;;;;;;5086223;28;20409;-68
2023/02/15 09:15:37;;;;;;;27.00;17.73;;;8.70;99.90;;;;;;5080897;28;20482;-64
2023/02/15 09:18:05;;;;;;;28.08;17.85;;;8.90;1.00;;;;;;5085571;28;20501;-66
2023/02/15 09:20:32;;;;;;;26.60;16.92;;;9.20;1.00;;;;;;5080626;28;20420;-64
2023/02/15 09:23:00;;;;;;;29.25;18.02;;;9.50;99.90;;;;;;5088648;28;20467;-64
2023/02/15 09:25:27;;;;;;;25.02;16.00;;;9.60;99.90;;;;;;5070392;28;21191;-64
2023/02/15 09:27:54;;;;;;;28.10;16.77;;;9.60;99.90;;;;;;5070696;28;20428;-63
2023/02/15 09:30:21;;;;;;;28.80;16.50;;;9.90;99.90;;;;;;5070347;28;20514;-64
2023/02/15 09:32:48;;;;;;;27.27;16.20;;;10.10;3.70;;;;;;5076409;28;20432;-64
2023/02/15 09:35:15;;;;;;;23.95;15.55;;;10.40;1.00;;;;;;5078767;28;20417;-65
2023/02/15 09:37:42;;;;;;;29.63;18.15;;;10.50;4.10;;;;;;5079622;28;20887;-65
2023/02/15 09:40:13;;;;;;;25.15;16.02;;;10.60;1.00;;;;;;5081316;28;20435;-64
2023/02/15 09:43:02;;;;;;;24.17;14.85;;;10.50;1.00;;;;;;5083842;28;20410;-65
2023/02/15 09:45:44;;;;;;;25.80;15.10;;;10.60;1.00;;;;;;5070155;28;20465;-63
2023/02/15 09:48:39;;;;;;;28.05;15.65;;;10.70;1.00;;;;;;5069535;28;20427;-71
2023/02/15 09:51:32;;;;;;;31.95;17.92;;;11.20;1.00;;;;;;5077208;28;20444;-64
2023/02/15 09:54:13;;;;;;;21.35;14.13;;;11.50;1.00;;;;;;5071131;28;20782;-65
2023/02/15 09:56:48;;;;;;;23.52;14.23;;;11.80;99.90;;;;;;5089939;28;20417;-65
2023/02/15 09:59:24;;;;;;;25.40;15.13;;;11.80;99.90;;;;;;5078827;28;20415;-66
2023/02/15 10:02:00;;;;;;;28.50;17.43;;;11.80;99.90;;;;;;5079171;28;20906;-64
2023/02/15 10:04:42;;;;;;;24.20;15.27;;;11.80;99.90;;;;;;5079465;28;20457;-64
2023/02/15 10:07:21;;;;;;;30.25;18.70;;;11.90;99.90;;;;;;5075901;28;20760;-65
2023/02/15 10:10:02;;;;;;;25.63;15.20;;;12.10;99.90;;;;;;5078435;28;20890;-64
2023/02/15 10:12:42;;;;;;;24.67;15.32;;;12.40;99.90;;;;;;5083475;28;20469;-64
2023/02/15 10:15:27;;;;;;;25.77;14.77;;;12.30;99.90;;;;;;5078365;28;20418;-64
2023/02/15 10:18:15;;;;;;;24.13;13.85;;;12.50;99.90;;;;;;5088266;28;20962;-64
2023/02/15 10:20:53;;;;;;;23.27;14.25;;;12.80;99.90;;;;;;5078791;28;20435;-64
2023/02/15 10:23:38;;;;;;;24.15;14.90;;;13.20;99.90;;;;;;5079002;28;20412;-63
2023/02/15 10:26:13;;;;;;;19.63;13.05;;;13.30;99.90;;;;;;5078107;28;20419;-64
2023/02/15 10:28:47;;;;;;;22.58;13.35;;;12.90;99.90;;;;;;5084803;28;20509;-62
2023/02/15 10:31:23;;;;;;;26.42;15.70;;;13.10;99.90;;;;;;5087705;28;20444;-63
2023/02/15 10:33:59;;;;;;;25.70;15.80;;;13.20;99.90;;;;;;5081986;28;20412;-63
2023/02/15 10:36:43;;;;;;;25.50;14.77;;;13.20;99.90;;;;;;5077177;28;20863;-63
2023/02/15 10:39:18;;;;;;;27.08;18.05;;;13.00;99.90;;;;;;5081706;28;20406;-62
2023/02/15 10:41:51;;;;;;;23.00;13.93;;;13.10;99.90;;;;;;5090466;28;20410;-64
2023/02/15 10:44:35;;;;;;;22.98;16.38;;;13.00;99.90;;;;;;5087866;28;20413;-63
2023/02/15 10:47:18;;;;;;;23.25;15.25;;;13.10;99.90;;;;;;5082687;28;20425;-65
2023/02/15 10:50:04;;;;;;;22.95;15.40;;;13.10;99.90;;;;;;5082806;28;20407;-66
2023/02/15 10:52:42;;;;;;;26.95;15.05;;;13.20;99.90;;;;;;5073501;28;20460;-65
2023/02/15 10:55:16;;;;;;;22.83;15.23;;;13.20;99.90;;;;;;5086369;28;20467;-65
2023/02/15 10:57:52;;;;;;;23.55;14.38;;;13.20;99.90;;;;;;5085204;28;20752;-64
2023/02/15 11:00:24;;;;;;;24.20;15.23;;;13.10;99.90;;;;;;5088313;28;20414;-67
2023/02/15 11:03:12;;;;;;;27.17;14.70;;;13.60;99.90;;;;;;5082469;28;20416;-65
2023/02/15 11:05:48;;;;;;;20.57;13.03;;;13.60;99.90;;;;;;5083993;28;20811;-62
2023/02/15 11:08:17;;;;;;;19.38;12.43;;;13.90;99.90;;;;;;5086074;28;20441;-63
2023/02/15 11:10:48;;;;;;;18.70;11.88;;;14.00;99.90;;;;;;5085479;28;20413;-64
2023/02/15 11:13:17;;;;;;;19.63;12.37;;;14.00;99.90;;;;;;5086956;28;20410;-64
2023/02/15 11:15:49;;;;;;;18.90;12.20;;;13.70;99.90;;;;;;5077934;28;20518;-65
2023/02/15 11:18:25;;;;;;;17.45;11.40;;;13.70;99.90;;;;;;5081488;28;21095;-65
2023/02/15 11:20:56;;;;;;;18.83;11.63;;;13.50;99.90;;;;;;5081893;28;20411;-64
2023/02/15 11:23:26;;;;;;;17.88;11.60;;;13.40;99.90;;;;;;5082859;28;20425;-64
2023/02/15 11:25:58;;;;;;;16.98;11.10;;;13.40;99.90;;;;;;5083325;28;20409;-63
2023/02/15 11:28:31;;;;;;;18.33;11.43;;;13.50;99.90;;;;;;5082917;28;21224;-65
2023/02/15 11:31:10;;;;;;;17.85;11.20;;;13.50;99.90;;;;;;5084188;28;20413;-64
2023/02/15 11:33:44;;;;;;;19.40;11.30;;;13.50;99.90;;;;;;5084085;28;20442;-65
2023/02/15 11:36:17;;;;;;;18.67;11.57;;;13.70;99.90;;;;;;5083069;28;20503;-68
2023/02/15 11:38:45;;;;;;;16.40;10.70;;;13.70;99.90;;;;;;5081600;28;20897;-67
2023/02/15 11:41:15;;;;;;;18.43;10.90;;;13.80;99.90;;;;;;5087836;28;20932;-66
2023/02/15 11:43:47;;;;;;;17.45;11.00;;;14.00;99.90;;;;;;5090901;28;20465;-66
2023/02/15 11:46:15;;;;;;;17.23;10.87;;;14.30;99.90;;;;;;5086728;28;20495;-68
2023/02/15 11:48:43;;;;;;;17.02;10.57;;;14.50;99.90;;;;;;5083393;28;20425;-67
2023/02/15 11:51:15;;;;;;;16.70;10.25;;;14.60;99.90;;;;;;5081095;28;20459;-71
2023/02/15 11:53:43;;;;;;;16.95;10.40;;;14.70;99.90;;;;;;5081879;28;20538;-68
2023/02/15 11:56:15;;;;;;;18.73;10.38;;;14.80;99.90;;;;;;5092974;28;20530;-68
2023/02/15 11:58:45;;;;;;;15.43;9.80;;;14.80;99.90;;;;;;5084376;28;20587;-69
2023/02/15 12:01:18;;;;;;;13.55;9.63;;;14.90;99.90;;;;;;5082297;28;20517;-71
2023/02/15 12:03:48;;;;;;;13.93;9.20;;;14.80;99.90;;;;;;5076089;28;20475;-67
2023/02/15 12:06:21;;;;;;;15.50;9.18;;;14.90;99.90;;;;;;5076325;28;20414;-64
2023/02/15 12:08:54;;;;;;;15.53;10.10;;;14.90;99.90;;;;;;5072975;28;20557;-64
2023/02/15 12:11:27;;;;;;;13.48;8.88;;;14.40;99.90;;;;;;5084628;28;20940;-64
2023/02/15 12:13:59;;;;;;;16.73;10.10;;;14.50;99.90;;;;;;5079778;28;20942;-64
2023/02/15 12:16:29;;;;;;;17.23;9.43;;;14.30;99.90;;;;;;5081599;28;20422;-64
2023/02/15 12:18:58;;;;;;;16.90;9.52;;;14.20;99.90;;;;;;5084193;28;20413;-66
2023/02/15 12:21:28;;;;;;;17.00;10.90;;;14.10;99.90;;;;;;5086468;28;20410;-65
2023/02/15 12:23:58;;;;;;;21.95;12.50;;;14.20;99.90;;;;;;5082778;28;20414;-65
2023/02/15 12:26:26;;;;;;;15.73;9.55;;;14.30;99.90;;;;;;5081047;28;20457;-65
2023/02/15 12:28:57;;;;;;;17.20;9.50;;;14.20;99.90;;;;;;5080181;28;20427;-67
2023/02/15 12:31:29;;;;;;;23.15;10.90;;;14.20;99.90;;;;;;5083452;28;20504;-67
2023/02/15 12:33:58;;;;;;;18.05;10.05;;;14.60;99.90;;;;;;5085240;28;20413;-67
2023/02/15 12:36:36;;;;;;;17.30;10.35;;;14.70;99.90;;;;;;5083753;28;20961;-68
2023/02/15 12:39:19;;;;;;;21.50;10.70;;;14.90;99.90;;;;;;5087646;28;20964;-67
2023/02/15 12:41:47;;;;;;;22.17;11.63;;;15.10;99.90;;;;;;5085772;28;20523;-66
2023/02/15 12:44:19;;;;;;;19.80;11.60;;;15.10;99.90;;;;;;5083816;28;20541;-65
2023/02/15 12:46:57;;;;;;;17.67;10.07;;;15.10;99.90;;;;;;5081221;28;20456;-66
2023/02/15 12:49:25;;;;;;;18.88;11.85;;;15.60;99.90;;;;;;5080506;28;20490;-65
2023/02/15 12:51:53;;;;;;;20.40;10.48;;;15.70;99.90;;;;;;5080377;28;20437;-67
2023/02/15 12:54:39;;;;;;;17.40;10.57;;;15.80;99.90;;;;;;5082922;28;20543;-66
2023/02/15 12:57:26;;;;;;;21.35;12.15;;;15.70;99.90;;;;;;5082697;28;20410;-66
2023/02/15 12:59:55;;;;;;;20.05;11.25;;;16.00;99.90;;;;;;5071295;28;20483;-68
2023/02/15 13:02:27;;;;;;;23.70;12.77;;;16.10;99.90;;;;;;5070898;28;20455;-68
2023/02/15 13:04:54;;;;;;;17.13;9.15;;;16.30;99.90;;;;;;5070789;28;20411;-66
2023/02/15 13:07:21;;;;;;;19.75;11.35;;;16.20;99.90;;;;;;5070507;28;20420;-66
2023/02/15 13:09:48;;;;;;;18.08;11.30;;;15.70;99.90;;;;;;5072582;28;20489;-68
2023/02/15 13:12:23;;;;;;;16.55;10.82;;;15.80;99.90;;;;;;5086995;28;21010;-67
2023/02/15 13:14:52;;;;;;;19.60;11.55;;;16.20;99.90;;;;;;5070951;28;20502;-65
2023/02/15 13:17:23;;;;;;;23.05;12.93;;;16.50;99.90;;;;;;5070022;28;20465;-67
2023/02/15 13:19:54;;;;;;;19.90;11.90;;;16.70;99.90;;;;;;5081839;28;20410;-68
2023/02/15 13:22:25;;;;;;;23.65;12.82;;;16.70;99.90;;;;;;5083121;28;20421;-68